»·PEaware :: DAL3556 KTUS-KLAX

DAL3556 :: KTUS-KLAX

FLIGHT INFORMATION

Flight Status: Arrived
Operator:
Delta Air Lines
More flights by this operator :: More flights under this callsign
Pilot: Nicholas R. (15648)
Aircraft: BOEING 737-800
(B738)
More flights by this aircraft type
Origin: KTUS Tucson Intl
United States
Destination: KLAX Los Angeles Intl
United States
More flights between these airports :: More routes between these airports
Route: +BURRO4 GBN J104 MESSI ESTWD HLYWD1
File this flight plan on PilotEdge
Remarks:
Altitude:
(Current/Filed)
34,000ft
Speed:
(Current/Filed)
450kts
Departed: 17-Nov-18 09:24 AM
Arrived: 17-Nov-18 10:37 AM
Distance/Time
Traveled:
391nm/1:13
Distance/Time
To Go:
Arrived

Flight Plot

Page will automatically refresh every two minutes.

Flight plan parsing failed; only flown route is shown


Map Options




Map Legend


Flown Route
Filed Route
Departure Airport
Arrival Airport
Navaid (VOR, NDB)
Fix

Horizontal Profiles

Position Reports

Time Latitude Longitude Heading Altitude Ground
Speed
17-Nov-18 09:09 32.118849 -110.937521 38 2603ft 0kts
17-Nov-18 09:10 32.118849 -110.937521 38 2603ft 0kts
17-Nov-18 09:11 32.118849 -110.937521 38 2603ft 0kts
17-Nov-18 09:12 32.118849 -110.937521 38 2603ft 0kts
17-Nov-18 09:13 32.118849 -110.937521 38 2603ft 0kts
17-Nov-18 09:14 32.118849 -110.937521 38 2603ft 0kts
17-Nov-18 09:15 32.118849 -110.937521 38 2603ft 0kts
17-Nov-18 09:16 32.118849 -110.937521 38 2603ft 0kts
17-Nov-18 09:17 32.118849 -110.937521 38 2603ft 0kts
17-Nov-18 09:18 32.118849 -110.937521 38 2603ft 0kts
17-Nov-18 09:19 32.118659 -110.937701 38 2603ft 2kts
17-Nov-18 09:20 32.118227 -110.937764 316 2604ft 0kts
17-Nov-18 09:21 32.118192 -110.937719 313 2604ft 0kts
17-Nov-18 09:22 32.118192 -110.937719 313 2604ft 0kts
17-Nov-18 09:23 32.119110 -110.939021 267 2601ft 0kts
17-Nov-18 09:24 32.119596 -110.940955 314 2598ft 18kts
17-Nov-18 09:25 32.124067 -110.946213 301 2579ft 17kts
17-Nov-18 09:26 32.123865 -110.947029 224 2578ft 3kts
17-Nov-18 09:27 32.117039 -110.940494 135 2602ft 116kts
17-Nov-18 09:28 32.086305 -110.902407 135 3989ft 180kts
17-Nov-18 09:29 32.035890 -110.867194 178 4999ft 257kts
17-Nov-18 09:30 31.977489 -110.907724 241 7447ft 271kts
17-Nov-18 09:31 31.981067 -110.994346 296 10030ft 285kts
17-Nov-18 09:32 32.021835 -111.079081 298 11941ft 314kts
17-Nov-18 09:33 32.065314 -111.168566 298 14362ft 324kts
17-Nov-18 09:34 32.121690 -111.253376 311 16803ft 337kts
17-Nov-18 09:35 32.185804 -111.336275 310 19179ft 349kts
17-Nov-18 09:36 32.251442 -111.422126 310 21368ft 359kts
17-Nov-18 09:37 32.312755 -111.515883 301 23358ft 367kts
17-Nov-18 09:38 32.369779 -111.617555 302 25177ft 377kts
17-Nov-18 09:39 32.427971 -111.721118 301 26843ft 386kts
17-Nov-18 09:40 32.485151 -111.823162 301 28326ft 395kts
17-Nov-18 09:41 32.546151 -111.932297 301 29887ft 399kts
17-Nov-18 09:42 32.606672 -112.040851 301 31596ft 395kts
17-Nov-18 09:43 32.666505 -112.148472 301 33144ft 391kts
17-Nov-18 09:44 32.726212 -112.256194 301 34131ft 399kts
17-Nov-18 09:45 32.789374 -112.370543 301 34129ft 429kts
17-Nov-18 09:46 32.854630 -112.488960 301 34125ft 431kts
17-Nov-18 09:47 32.919980 -112.607912 302 34125ft 430kts
17-Nov-18 09:48 32.977159 -112.702861 309 34141ft 431kts
17-Nov-18 09:49 33.056490 -112.807515 309 34128ft 422kts
17-Nov-18 09:50 33.144904 -112.925097 308 34131ft 416kts
17-Nov-18 09:51 33.209562 -113.011189 309 34141ft 419kts
17-Nov-18 09:52 33.299948 -113.131389 309 34154ft 419kts
17-Nov-18 09:53 33.364696 -113.217417 309 34153ft 419kts
17-Nov-18 09:54 33.442485 -113.320686 309 34152ft 419kts
17-Nov-18 09:55 33.520169 -113.424690 309 34151ft 419kts
17-Nov-18 09:56 33.597196 -113.528409 309 34150ft 419kts
17-Nov-18 09:57 33.674127 -113.632601 309 34138ft 419kts
17-Nov-18 09:58 33.749632 -113.734955 308 34132ft 418kts
17-Nov-18 09:59 33.812909 -113.842761 291 34133ft 414kts
17-Nov-18 10:00 33.856525 -113.970098 290 34131ft 413kts
17-Nov-18 10:01 33.889660 -114.102205 282 34130ft 413kts
17-Nov-18 10:02 33.914531 -114.236393 282 34126ft 412kts
17-Nov-18 10:03 33.939334 -114.371052 282 34125ft 412kts
17-Nov-18 10:04 33.963921 -114.505411 282 34124ft 412kts
17-Nov-18 10:05 33.988392 -114.639885 281 34123ft 412kts
17-Nov-18 10:06 34.012156 -114.771875 280 34130ft 412kts
17-Nov-18 10:07 34.036250 -114.906653 280 34129ft 412kts
17-Nov-18 10:08 34.060143 -115.041650 280 34128ft 412kts
17-Nov-18 10:09 34.080916 -115.169867 280 34127ft 412kts
17-Nov-18 10:10 34.102520 -115.303840 280 34152ft 412kts
17-Nov-18 10:11 34.124021 -115.437931 280 34190ft 413kts
17-Nov-18 10:12 34.145651 -115.573764 280 34196ft 413kts
17-Nov-18 10:13 34.161193 -115.708855 266 34218ft 412kts
17-Nov-18 10:14 34.148822 -115.845231 263 34202ft 412kts
17-Nov-18 10:15 34.135580 -115.980987 263 34178ft 390kts
17-Nov-18 10:16 34.122988 -116.109449 263 34199ft 386kts
17-Nov-18 10:17 34.110341 -116.237390 263 33562ft 381kts
17-Nov-18 10:18 34.097363 -116.364397 263 31060ft 394kts
17-Nov-18 10:19 34.084524 -116.484064 263 28852ft 379kts
17-Nov-18 10:20 34.071252 -116.607923 264 26753ft 369kts
17-Nov-18 10:21 34.060416 -116.724796 264 25059ft 363kts
17-Nov-18 10:22 34.049254 -116.844046 264 22790ft 358kts
17-Nov-18 10:23 34.036335 -116.958368 261 20884ft 345kts
17-Nov-18 10:24 34.022086 -117.069465 262 18989ft 335kts
17-Nov-18 10:25 34.009264 -117.177442 262 17096ft 327kts
17-Nov-18 10:26 33.998454 -117.268086 262 15585ft 320kts
17-Nov-18 10:27 33.986119 -117.371901 262 13862ft 313kts
17-Nov-18 10:28 33.974148 -117.473523 262 12193ft 307kts
17-Nov-18 10:29 33.970784 -117.575204 270 10121ft 301kts
17-Nov-18 10:30 33.969275 -117.667809 269 8928ft 268kts
17-Nov-18 10:31 33.967705 -117.757018 270 7843ft 267kts
17-Nov-18 10:32 33.966084 -117.845150 270 6822ft 266kts
17-Nov-18 10:33 33.964390 -117.933622 269 5773ft 265kts
17-Nov-18 10:34 33.962627 -118.021562 269 4790ft 261kts
17-Nov-18 10:35 33.960848 -118.108099 269 3817ft 259kts
17-Nov-18 10:36 33.957455 -118.189052 263 2878ft 227kts
17-Nov-18 10:37 33.950384 -118.256304 262 2069ft 185kts
17-Nov-18 10:38 33.944344 -118.313014 263 1408ft 160kts
17-Nov-18 10:39 33.939301 -118.364223 263 425ft 148kts
17-Nov-18 10:40 33.935766 -118.401968 284 119ft 35kts
17-Nov-18 10:41 33.936221 -118.404754 263 122ft 15kts
17-Nov-18 10:42 33.937405 -118.409057 354 126ft 0kts
17-Nov-18 10:43 33.939442 -118.408037 28 126ft 13kts
17-Nov-18 10:44 33.939771 -118.407316 70 124ft 0kts

Navigation Log

Ident Type
Flight plan parsing failed, navigation log unavailable